Time;durP1;ratioP1;P1;durP2;ratioP2;P2;SDS_P1;SDS_P2;PMS_P1;PMS_P2;Temp;Humidity;BMP_temperature;BMP_pressure;BME280_temperature;BME280_humidity;BME280_pressure;Samples;Min_cycle;Max_cycle;Signal;HPM_P1;HPM_P2
2022/03/21 00:01:21;;;;;;;26.30;12.95;;;;;;;0.91;40.12;102264.91;6375935;27;20394;-65
2022/03/21 00:04:23;;;;;;;27.60;12.85;;;;;;;0.87;40.64;102263.13;6375798;27;20460;-65
2022/03/21 00:07:24;;;;;;;33.35;14.63;;;;;;;0.87;41.48;102265.69;6375755;27;20126;-65
2022/03/21 00:10:25;;;;;;;34.80;13.57;;;;;;;0.79;40.76;102260.44;6374567;27;20055;-66
2022/03/21 00:13:27;;;;;;;29.83;13.63;;;;;;;0.74;40.33;102268.09;6374095;27;20055;-65
2022/03/21 00:16:28;;;;;;;37.23;13.67;;;;;;;0.79;39.98;102261.28;6374490;27;20042;-67
2022/03/21 00:19:29;;;;;;;31.27;14.85;;;;;;;0.85;41.89;102262.25;6375487;27;20078;-65
2022/03/21 00:22:30;;;;;;;32.03;14.75;;;;;;;0.72;40.48;102258.59;6374120;27;20186;-66
2022/03/21 00:25:30;;;;;;;34.50;14.63;;;;;;;0.78;40.92;102261.25;6374233;27;20699;-65
2022/03/21 00:28:31;;;;;;;31.95;15.40;;;;;;;0.70;40.94;102253.47;6356944;27;20035;-66
2022/03/21 00:31:35;;;;;;;31.00;14.55;;;;;;;0.63;41.49;102250.78;6375025;27;20045;-65
2022/03/21 00:34:35;;;;;;;29.95;14.02;;;;;;;0.58;41.61;102251.56;6340370;27;20356;-65
2022/03/21 00:37:37;;;;;;;31.83;15.32;;;;;;;0.52;41.34;102248.91;6322159;27;20108;-66
2022/03/21 00:40:38;;;;;;;30.33;14.60;;;;;;;0.51;42.49;102251.44;6373413;27;20038;-66
2022/03/21 00:43:39;;;;;;;31.17;13.35;;;;;;;0.51;41.50;102244.59;6374742;27;20059;-65
2022/03/21 00:46:40;;;;;;;31.65;13.77;;;;;;;0.44;41.95;102254.75;6373218;27;20372;-66
2022/03/21 00:49:41;;;;;;;27.08;11.60;;;;;;;0.40;42.17;102254.69;6374574;27;20043;-66
2022/03/21 00:52:47;;;;;;;29.55;12.15;;;;;;;0.35;43.32;102250.31;6373807;27;20099;-66
2022/03/21 00:55:49;;;;;;;33.53;12.95;;;;;;;0.27;42.36;102247.66;6373788;27;20043;-66
2022/03/21 00:58:51;;;;;;;28.08;12.82;;;;;;;0.32;43.28;102250.28;6372900;27;20054;-66
2022/03/21 01:01:52;;;;;;;26.90;13.07;;;;;;;0.26;43.26;102248.47;6374466;27;20051;-66
2022/03/21 01:04:52;;;;;;;26.33;11.48;;;;;;;0.17;43.97;102249.19;6374276;27;20043;-66
2022/03/21 01:07:55;;;;;;;28.52;12.23;;;;;;;0.18;45.59;102255.19;6374180;27;20436;-65
2022/03/21 01:10:56;;;;;;;27.42;11.80;;;;;;;0.05;43.85;102250.69;6372821;27;20043;-65
2022/03/21 01:13:57;;;;;;;25.27;11.85;;;;;;;0.01;43.99;102251.47;6372775;27;20035;-65
2022/03/21 01:16:58;;;;;;;24.02;12.27;;;;;;;0.02;45.06;102248.91;6355640;27;20441;-66
2022/03/21 01:19:59;;;;;;;26.45;12.23;;;;;;;0.04;46.10;102251.50;6338641;27;20047;-65
2022/03/21 01:22:59;;;;;;;19.27;10.93;;;;;;;-0.01;45.35;102256.56;6355522;27;20116;-66
2022/03/21 01:26:00;;;;;;;25.48;11.18;;;;;;;-0.06;44.62;102242.81;6355350;27;20542;-66
2022/03/21 01:29:01;;;;;;;22.30;11.80;;;;;;;-0.05;43.35;102242.81;6372353;27;20050;-65
2022/03/21 01:32:03;;;;;;;28.25;11.35;;;;;;;0.00;43.77;102242.91;6355275;27;20046;-65
2022/03/21 01:35:05;;;;;;;24.45;12.23;;;;;;;0.02;44.13;102242.91;6373334;27;20043;-67
2022/03/21 01:38:06;;;;;;;24.90;11.65;;;;;;;0.02;43.99;102246.34;6372280;27;20379;-65
2022/03/21 01:41:06;;;;;;;20.52;11.05;;;;;;;0.05;44.15;102254.09;6373376;27;20043;-65
2022/03/21 01:44:09;;;;;;;23.15;12.07;;;;;;;0.03;44.55;102249.78;6372319;27;20122;-65
2022/03/21 01:47:10;;;;;;;22.65;11.45;;;;;;;-0.02;44.92;102234.31;6371757;27;20039;-66
2022/03/21 01:50:13;;;;;;;29.75;12.32;;;;;;;-0.05;44.15;102247.09;6371626;27;20046;-66
2022/03/21 01:56:34;;;;;;;25.95;12.80;;;;;;;-0.15;45.29;102246.03;6373246;27;20092;-66
2022/03/21 01:59:36;;;;;;;28.35;13.23;;;;;;;-0.19;45.79;102244.25;6371233;27;20530;-65
2022/03/21 02:02:37;;;;;;;25.25;12.30;;;;;;;-0.19;46.43;102245.97;6371765;27;20069;-66
2022/03/21 02:05:38;;;;;;;26.10;12.23;;;;;;;-0.30;46.30;102241.50;6372843;27;20059;-66
2022/03/21 02:08:39;;;;;;;23.20;12.38;;;;;;;-0.34;45.32;102237.16;6372765;27;20088;-65
2022/03/21 02:11:40;;;;;;;25.05;11.40;;;;;;;-0.37;45.66;102238.78;6372526;27;20122;-66
2022/03/21 02:14:41;;;;;;;28.02;11.80;;;;;;;-0.45;46.25;102236.09;6372518;27;20039;-66
2022/03/21 02:17:46;;;;;;;24.42;11.95;;;;;;;-0.41;45.47;102243.00;6372509;27;20438;-65
2022/03/21 02:20:49;;;;;;;29.73;12.95;;;;;;;-0.39;45.57;102240.44;6372406;27;20386;-65
2022/03/21 02:24:02;;;;;;;23.40;11.20;;;;;;;-0.45;46.12;102236.09;6372524;27;20042;-65
2022/03/21 02:27:06;;;;;;;27.20;11.77;;;;;;;-0.49;46.28;102234.31;6354318;27;20055;-65
2022/03/21 02:30:07;;;;;;;26.25;11.70;;;;;;;-0.51;46.04;102241.09;6371014;27;20039;-65
2022/03/21 02:33:10;;;;;;;25.17;11.18;;;;;;;-0.57;45.79;102235.84;6372375;27;20440;-65
2022/03/21 02:36:12;;;;;;;20.98;10.18;;;;;;;-0.57;45.52;102243.53;6370911;27;20055;-65
2022/03/21 02:39:14;;;;;;;24.35;11.80;;;;;;;-0.61;46.04;102245.19;6371005;27;20075;-65
2022/03/21 02:42:15;;;;;;;22.08;10.90;;;;;;;-0.69;46.13;102247.56;6370771;27;20047;-65
2022/03/21 02:45:16;;;;;;;27.23;11.77;;;;;;;-0.65;45.29;102243.38;6372117;27;20054;-65
2022/03/21 02:48:18;;;;;;;24.60;11.05;;;;;;;-0.65;45.42;102243.38;6370138;27;20057;-66
2022/03/21 02:51:22;;;;;;;;;;;;;;;-0.66;45.88;102251.88;6371699;27;20535;-66
2022/03/21 02:54:23;;;;;;;18.45;9.43;;;;;;;-0.64;45.66;102247.66;6370716;27;19953;-66
2022/03/21 02:57:24;;;;;;;21.88;10.65;;;;;;;-0.64;45.71;102248.56;6370747;28;20066;-66
2022/03/21 03:00:26;;;;;;;20.75;10.43;;;;;;;-0.68;45.63;102249.31;6359904;27;20055;-65
2022/03/21 03:03:27;;;;;;;22.65;10.55;;;;;;;-0.66;46.02;102257.03;6380542;27;20043;-65
2022/03/21 03:06:28;;;;;;;21.42;10.23;;;;;;;-0.68;46.08;102249.31;6379126;27;20530;-65
2022/03/21 03:09:29;;;;;;;24.70;11.15;;;;;;;-0.69;45.86;102249.28;6379069;27;20068;-66
2022/03/21 03:12:30;;;;;;;21.17;10.18;;;;;;;-0.71;46.03;102251.81;6361820;27;20075;-65
2022/03/21 03:15:31;;;;;;;24.58;10.85;;;;;;;-0.73;46.03;102250.06;6378873;27;20047;-65
2022/03/21 03:18:32;;;;;;;17.60;9.95;;;;;;;-0.77;45.70;102251.69;6361890;27;20039;-70
2022/03/21 03:21:45;;;;;;;23.80;9.63;;;;;;;-0.75;46.40;102251.72;6378780;27;20418;-70
2022/03/21 03:24:48;;;;;;;20.50;10.02;;;;;;;-0.75;45.88;102251.72;6380037;27;20513;-70
2022/03/21 03:27:49;;;;;;;20.38;10.52;;;;;;;-0.69;46.18;102255.25;6378819;27;20053;-70
2022/03/21 03:30:50;;;;;;;21.90;11.30;;;;;;;-0.68;46.17;102257.00;6361596;27;20375;-70
2022/03/21 03:33:51;;;;;;;23.25;11.23;;;;;;;-0.64;45.12;102263.94;6361368;27;20122;-70
2022/03/21 03:36:52;;;;;;;21.95;10.55;;;;;;;-0.55;44.79;102255.56;6361733;27;20039;-70
2022/03/21 03:39:53;;;;;;;21.70;11.38;;;;;;;-0.47;45.59;102261.69;6378637;27;20539;-70
2022/03/21 03:42:54;;;;;;;26.95;11.52;;;;;;;-0.46;45.80;102260.84;6378468;27;20047;-70
2022/03/21 03:45:57;;;;;;;25.52;11.65;;;;;;;-0.47;45.24;102264.28;6380227;27;20668;-70
2022/03/21 03:48:58;;;;;;;24.02;12.13;;;;;;;-0.55;45.53;102259.81;6361772;27;20042;-70
2022/03/21 03:51:59;;;;;;;23.95;11.05;;;;;;;-0.56;45.45;102258.94;6361293;27;20047;-70
2022/03/21 03:55:00;;;;;;;30.40;11.55;;;;;;;-0.52;45.19;102265.84;6361428;27;20495;-70
2022/03/21 03:58:01;;;;;;;24.17;11.27;;;;;;;-0.53;45.61;102269.28;6379526;27;20043;-70
2022/03/21 04:01:04;;;;;;;23.67;10.32;;;;;;;-0.57;46.03;102269.19;6361113;27;20058;-70
2022/03/21 04:04:05;;;;;;;23.13;11.52;;;;;;;-0.57;45.52;102266.63;6379821;27;20051;-70
2022/03/21 04:07:07;;;;;;;22.73;11.23;;;;;;;-0.56;45.83;102269.19;6378489;27;20047;-70
2022/03/21 04:10:08;;;;;;;31.48;12.38;;;;;;;-0.60;46.34;102269.97;6359473;27;20039;-70
2022/03/21 04:13:09;;;;;;;24.75;11.02;;;;;;;-0.59;46.57;102273.41;6357000;27;20058;-70
2022/03/21 04:16:10;;;;;;;23.60;11.65;;;;;;;-0.66;46.20;102270.72;6375513;27;20484;-72
2022/03/21 04:19:12;;;;;;;31.23;13.30;;;;;;;-0.61;46.55;102276.81;6339966;27;20055;-71
2022/03/21 04:22:13;;;;;;;32.97;12.80;;;;;;;-0.63;46.56;102269.91;6374321;27;20055;-71
2022/03/21 04:25:14;;;;;;;26.65;12.82;;;;;;;-0.70;45.65;102274.06;6375373;27;20054;-71
2022/03/21 04:28:16;;;;;;;30.77;13.30;;;;;;;-0.70;46.57;102271.50;6373736;27;20047;-71
2022/03/21 04:31:16;;;;;;;24.65;11.85;;;;;;;-0.77;46.33;102273.91;6357131;27;20046;-71
2022/03/21 04:34:18;;;;;;;21.67;10.25;;;;;;;-0.83;46.86;102272.91;6374885;27;20039;-72
2022/03/21 04:37:19;;;;;;;20.10;10.48;;;;;;;-0.92;47.39;102270.16;6373755;27;20092;-72
2022/03/21 04:40:20;;;;;;;25.95;10.82;;;;;;;-0.91;47.00;102276.16;6372903;27;20100;-72
2022/03/21 04:43:20;;;;;;;24.25;11.63;;;;;;;-0.77;46.51;102274.75;6374225;27;20420;-72
2022/03/21 04:46:21;;;;;;;20.90;9.95;;;;;;;-0.72;45.77;102267.16;6373388;27;20391;-72
2022/03/21 04:49:22;;;;;;;18.65;9.98;;;;;;;-0.78;46.16;102273.03;6374875;27;20050;-71
2022/03/21 04:52:23;;;;;;;27.70;11.68;;;;;;;-0.79;46.85;102271.28;6356463;27;20067;-72
2022/03/21 04:55:24;;;;;;;19.85;9.68;;;;;;;-0.73;46.69;102275.69;6373460;27;20437;-72
2022/03/21 04:58:25;;;;;;;23.15;11.20;;;;;;;-0.79;46.27;102276.41;6374393;27;20054;-72
2022/03/21 05:01:26;;;;;;;30.65;12.98;;;;;;;-0.87;46.66;102271.13;6374111;27;20043;-72
2022/03/21 05:04:27;;;;;;;25.13;12.23;;;;;;;-0.87;46.79;102283.06;6373119;27;20488;-71
2022/03/21 05:07:29;;;;;;;25.35;11.65;;;;;;;-0.80;47.67;102277.25;6355937;27;20039;-71
2022/03/21 05:10:31;;;;;;;20.55;10.88;;;;;;;-0.63;46.10;102286.16;6372826;27;20047;-67
2022/03/21 05:13:32;;;;;;;24.95;11.60;;;;;;;-0.42;45.72;102279.75;6372929;27;20502;-67
2022/03/21 05:16:33;;;;;;;22.02;10.35;;;;;;;-0.29;46.03;102286.84;6374087;27;20050;-67
2022/03/21 05:19:35;;;;;;;27.05;11.07;;;;;;;-0.22;45.88;102290.41;6372679;27;20047;-67
2022/03/21 05:22:36;;;;;;;19.60;9.87;;;;;;;-0.04;44.46;102279.63;6373597;27;20043;-68
2022/03/21 05:32:17;;;;;;;17.08;8.73;;;;;;;0.42;43.62;102288.13;6373590;27;20130;-66
2022/03/21 05:38:37;;;;;;;18.25;9.60;;;;;;;0.77;43.37;102305.81;6372439;27;20120;-66
2022/03/21 05:41:38;;;;;;;20.52;10.38;;;;;;;0.94;42.73;102306.91;6372317;27;20035;-66
2022/03/21 05:44:39;;;;;;;18.98;10.25;;;;;;;1.10;42.64;102308.00;6373235;27;20059;-66
2022/03/21 05:50:59;;;;;;;21.20;9.63;;;;;;;1.41;41.82;102301.56;6373212;27;20047;-66
2022/03/21 05:54:05;;;;;;;20.60;9.98;;;;;;;1.59;41.73;102312.94;6371929;27;20138;-66
2022/03/21 05:57:06;;;;;;;21.38;9.45;;;;;;;1.76;41.49;102308.84;6372958;27;20039;-66
2022/03/21 06:00:22;;;;;;;16.63;9.43;;;;;;;1.92;40.95;102304.75;6372766;27;20077;-66
2022/03/21 06:03:26;;;;;;;19.42;9.65;;;;;;;2.11;40.29;102312.66;6371220;27;20043;-66
2022/03/21 06:06:27;;;;;;;27.50;10.75;;;;;;;2.27;39.88;102318.84;6371429;27;20483;-66
2022/03/21 06:09:28;;;;;;;29.60;12.48;;;;;;;2.43;40.62;102320.72;6372572;27;20054;-66
2022/03/21 06:12:30;;;;;;;20.95;10.88;;;;;;;2.56;40.05;102325.09;6371330;27;20081;-67
2022/03/21 06:15:33;;;;;;;25.92;11.38;;;;;;;2.70;40.01;102322.66;6372449;27;20047;-67
2022/03/21 06:18:34;;;;;;;;;;;;;;;2.76;40.14;102324.38;6372742;27;20043;-67
2022/03/21 06:21:35;;;;;;;24.90;10.23;;;;;;;2.92;39.48;102327.94;6372456;27;19926;-67
2022/03/21 06:24:36;;;;;;;18.70;9.73;;;;;;;3.10;39.71;102322.06;6370709;27;20475;-68
2022/03/21 06:27:37;;;;;;;22.35;9.73;;;;;;;3.23;39.13;102326.41;6371705;27;20046;-67
2022/03/21 06:30:38;;;;;;;17.42;8.73;;;;;;;3.34;37.71;102327.38;6370413;27;20047;-67
2022/03/21 06:33:40;;;;;;;22.42;9.43;;;;;;;3.59;37.84;102323.16;6352954;27;20054;-67
2022/03/21 06:36:41;;;;;;;32.83;10.65;;;;;;;3.78;37.87;102331.84;6370803;27;20050;-67
2022/03/21 06:39:42;;;;;;;23.88;10.38;;;;;;;3.86;37.81;102325.84;6372142;27;20043;-68
2022/03/21 06:42:43;;;;;;;23.00;10.32;;;;;;;3.97;36.72;102325.00;6354180;27;20066;-67
2022/03/21 06:45:47;;;;;;;23.90;12.13;;;;;;;4.11;37.22;102325.06;6368610;27;20095;-68
2022/03/21 06:48:48;;;;;;;20.60;11.60;;;;;;;4.33;37.73;102330.28;6352630;27;20043;-67
2022/03/21 06:51:48;;;;;;;25.05;11.98;;;;;;;4.45;37.31;102335.47;6364087;27;20046;-68
2022/03/21 06:54:49;;;;;;;19.55;10.57;;;;;;;4.41;36.26;102332.00;6357951;27;20513;-67
2022/03/21 06:57:50;;;;;;;26.42;12.07;;;;;;;4.60;36.67;102338.03;6346645;27;20040;-67
2022/03/21 07:00:52;;;;;;;19.75;10.77;;;;;;;4.84;36.06;102337.19;6369203;28;20043;-67
2022/03/21 07:03:53;;;;;;;22.92;11.48;;;;;;;5.01;35.88;102344.06;6326629;28;20106;-67
2022/03/21 07:06:54;;;;;;;22.38;11.40;;;;;;;5.36;36.97;102343.97;6343846;28;20051;-67
2022/03/21 07:09:55;;;;;;;20.40;9.90;;;;;;;5.59;35.61;102343.03;6343673;28;20040;-67
2022/03/21 07:12:56;;;;;;;23.50;10.95;;;;;;;5.73;35.67;102340.41;6345718;27;20032;-66
2022/03/21 07:15:57;;;;;;;23.15;11.15;;;;;;;5.90;36.20;102340.31;6346492;27;20392;-67
2022/03/21 07:18:58;;;;;;;22.75;9.30;;;;;;;6.11;34.86;102350.59;6344060;28;20043;-67
2022/03/21 07:22:00;;;;;;;21.83;10.73;;;;;;;6.27;34.81;102353.09;6345313;28;20043;-67
2022/03/21 07:25:01;;;;;;;;;;;;;;;6.39;33.79;102347.84;6345471;28;20047;-68
2022/03/21 07:28:02;;;;;;;26.15;8.73;;;;;;;6.44;32.92;102340.88;6345112;28;19955;-68
2022/03/21 07:31:04;;;;;;;19.50;9.43;;;;;;;6.43;32.82;102344.34;6344878;28;20476;-68
2022/03/21 07:34:05;;;;;;;18.70;10.25;;;;;;;6.60;32.27;102346.81;6344835;28;20047;-68
2022/03/21 07:37:06;;;;;;;21.92;10.73;;;;;;;6.84;32.62;102349.22;6343620;28;20035;-67
2022/03/21 07:40:10;;;;;;;19.83;10.77;;;;;;;7.12;33.47;102348.09;6343737;28;20040;-67
2022/03/21 07:43:11;;;;;;;21.45;10.45;;;;;;;7.04;31.92;102346.44;6344711;28;20067;-68
2022/03/21 07:49:31;;;;;;;19.92;10.57;;;;;;;7.30;31.68;102344.44;6349452;28;20476;-68
2022/03/21 07:52:32;;;;;;;25.20;11.57;;;;;;;7.40;31.88;102351.25;6349512;28;20096;-68
2022/03/21 07:55:33;;;;;;;21.17;11.73;;;;;;;7.71;31.89;102354.34;6348094;28;20046;-67
2022/03/21 07:58:35;;;;;;;20.83;10.88;;;;;;;7.77;31.20;102345.63;6349102;28;20403;-67
2022/03/21 08:01:37;;;;;;;;;;;;;;;8.22;30.62;102338.94;6349707;28;20073;-69
2022/03/21 08:04:39;;;;;;;21.02;10.23;;;;;;;8.12;29.33;102339.94;6349360;28;20295;-68
2022/03/21 08:07:40;;;;;;;21.48;11.25;;;;;;;8.33;30.64;102336.16;6331403;28;20488;-67
2022/03/21 08:10:42;;;;;;;20.40;10.27;;;;;;;8.56;30.21;102330.63;6348047;28;20495;-67
2022/03/21 08:13:43;;;;;;;20.20;10.38;;;;;;;8.74;29.56;102341.63;6348018;28;20046;-68
2022/03/21 08:16:44;;;;;;;17.42;9.88;;;;;;;9.19;29.68;102331.28;6313867;28;20043;-67
2022/03/21 08:19:45;;;;;;;20.65;10.95;;;;;;;9.00;28.60;102323.81;6349070;28;20035;-68
2022/03/21 08:22:47;;;;;;;18.40;9.23;;;;;;;8.98;27.55;102330.78;6349003;28;20038;-68
2022/03/21 08:25:48;;;;;;;17.23;9.52;;;;;;;9.15;27.55;102324.41;6365319;27;20052;-68
2022/03/21 08:28:49;;;;;;;22.80;10.55;;;;;;;9.16;27.57;102320.91;6348874;28;20046;-69
2022/03/21 08:31:50;;;;;;;16.33;9.25;;;;;;;9.58;28.18;102315.75;6347500;28;20430;-68
2022/03/21 08:34:51;;;;;;;16.35;8.88;;;;;;;9.87;26.96;102317.72;6347365;28;20044;-68
2022/03/21 08:37:52;;;;;;;18.60;9.30;;;;;;;10.25;27.20;102313.38;6360164;27;20394;-67
2022/03/21 08:40:55;;;;;;;25.85;8.85;;;;;;;10.45;27.06;102302.50;6371788;27;20126;-68
2022/03/21 08:43:56;;;;;;;15.35;9.15;;;;;;;10.20;25.60;102308.28;6373644;27;20050;-67
2022/03/21 08:46:57;;;;;;;16.42;8.77;;;;;;;10.17;26.33;102315.31;6372866;27;20043;-67
2022/03/21 08:49:57;;;;;;;19.55;8.77;;;;;;;10.55;26.65;102305.75;6373601;27;20035;-68
2022/03/21 08:52:58;;;;;;;16.13;8.43;;;;;;;10.94;26.34;102311.69;6373783;27;20100;-68
2022/03/21 08:55:59;;;;;;;13.63;8.02;;;;;;;10.87;26.49;102311.00;6355143;27;20080;-67
2022/03/21 08:59:00;;;;;;;14.07;7.68;;;;;;;11.22;25.46;102298.72;6372858;27;20051;-68
2022/03/21 09:02:02;;;;;;;16.38;8.80;;;;;;;11.17;24.79;102304.97;6372387;27;20043;-68
2022/03/21 09:05:06;;;;;;;14.30;7.85;;;;;;;11.24;24.90;102306.50;6370802;27;20039;-67
2022/03/21 09:08:09;;;;;;;17.13;9.10;;;;;;;11.28;25.83;102308.13;6370444;27;20107;-67
2022/03/21 09:11:09;;;;;;;16.30;8.30;;;;;;;11.65;24.87;102312.31;6370593;27;20062;-67
2022/03/21 09:14:10;;;;;;;15.75;8.43;;;;;;;11.60;24.44;102308.97;6370197;27;20057;-67
2022/03/21 09:17:13;;;;;;;14.35;8.00;;;;;;;12.03;25.73;102303.34;6353186;27;20043;-67
2022/03/21 09:20:14;;;;;;;13.88;8.00;;;;;;;12.10;24.46;102293.53;6353338;27;20529;-67
2022/03/21 09:23:15;;;;;;;12.70;7.90;;;;;;;12.11;24.45;102297.88;6371349;27;20043;-67
2022/03/21 09:26:16;;;;;;;14.50;8.88;;;;;;;11.95;22.98;102291.41;6369647;27;20365;-67
2022/03/21 09:29:18;;;;;;;15.10;7.63;;;;;;;11.92;23.25;102284.47;6371066;27;20047;-66
2022/03/21 09:32:19;;;;;;;12.40;7.28;;;;;;;11.93;23.32;102290.59;6371968;27;20413;-67
2022/03/21 09:35:20;;;;;;;14.07;7.63;;;;;;;12.17;23.64;102288.94;6371791;27;20039;-67
2022/03/21 09:38:21;;;;;;;13.63;8.18;;;;;;;12.45;24.14;102287.13;6371412;27;20131;-67
2022/03/21 09:41:27;;;;;;;11.85;7.72;;;;;;;12.67;23.59;102292.50;6370642;27;20051;-67
2022/03/21 09:44:28;;;;;;;13.73;8.23;;;;;;;13.00;23.28;102279.16;6372036;27;20047;-66
2022/03/21 09:50:52;;;;;;;15.27;7.50;;;;;;;12.92;22.55;102278.56;6370696;27;20074;-67
2022/03/21 09:54:00;;;;;;;;;;;;;;;13.08;21.56;102277.09;6369328;27;20043;-67
2022/03/21 09:57:02;;;;;;;13.48;7.32;;;;;;;13.43;22.92;102269.75;6370862;27;19919;-71
2022/03/21 10:00:05;;;;;;;15.25;7.80;;;;;;;13.51;22.78;102272.06;6371423;27;20108;-71
2022/03/21 10:03:06;;;;;;;22.70;7.70;;;;;;;13.46;22.33;102269.59;6370263;27;20054;-71
2022/03/21 10:06:40;;;;;;;14.05;8.02;;;;;;;13.51;21.98;102261.59;6370039;27;20047;-71
2022/03/21 10:09:41;;;;;;;13.38;6.93;;;;;;;14.07;21.78;102252.38;6325812;27;20562;-71
2022/03/21 10:12:42;;;;;;;12.60;7.53;;;;;;;13.67;23.20;102243.47;6372024;27;20094;-71
2022/03/21 10:15:43;;;;;;;11.30;7.18;;;;;;;13.74;20.68;102249.34;6371265;27;20582;-71
2022/03/21 10:18:53;;;;;;;14.10;8.07;;;;;;;13.88;21.37;102242.63;6371736;27;20039;-71
2022/03/21 10:22:06;;;;;;;14.82;6.88;;;;;;;14.08;20.80;102236.59;6371648;27;20039;-71
2022/03/21 10:25:08;;;;;;;11.23;6.68;;;;;;;14.16;20.42;102238.88;6368316;27;20047;-71
2022/03/21 10:28:09;;;;;;;;;;;;;;;14.04;22.01;102237.63;6361483;27;20043;-72
2022/03/21 10:31:10;;;;;;;14.48;7.70;;;;;;;14.29;19.73;102236.63;6359037;27;19923;-71
2022/03/21 10:34:17;;;;;;;13.15;6.97;;;;;;;14.08;20.61;102225.19;6354156;27;20039;-71
2022/03/21 10:37:18;;;;;;;13.90;6.72;;;;;;;14.61;19.94;102232.63;6346867;27;20050;-72
2022/03/21 10:40:30;;;;;;;12.27;6.78;;;;;;;14.00;19.13;102219.41;6352178;27;20047;-71
2022/03/21 10:43:31;;;;;;;12.68;6.65;;;;;;;14.13;19.99;102209.28;6371187;27;20039;-71
2022/03/21 10:46:33;;;;;;;10.25;6.93;;;;;;;14.36;20.49;102203.91;6369916;27;20046;-72
2022/03/21 10:49:43;;;;;;;11.52;6.53;;;;;;;14.81;20.65;102194.97;6369944;27;20046;-71
2022/03/21 10:53:07;;;;;;;14.60;7.13;;;;;;;14.85;18.86;102211.47;6371191;27;20039;-71
2022/03/21 10:56:10;;;;;;;10.23;6.18;;;;;;;14.89;19.26;102199.88;6368556;27;20043;-72
2022/03/21 10:59:16;;;;;;;13.00;7.05;;;;;;;14.87;19.31;102197.31;6370816;27;20469;-71
2022/03/21 11:02:17;;;;;;;9.90;6.90;;;;;;;14.98;19.53;102203.88;6370669;28;20036;-67
2022/03/21 11:05:26;;;;;;;11.82;7.22;;;;;;;15.17;19.61;102188.94;6370979;27;20143;-67
2022/03/21 11:08:28;;;;;;;13.02;6.65;;;;;;;15.44;18.25;102194.72;6362613;27;20107;-67
2022/03/21 11:11:29;;;;;;;10.70;7.28;;;;;;;15.14;18.77;102183.00;6342651;28;20032;-67
2022/03/21 11:14:30;;;;;;;10.18;6.45;;;;;;;15.18;20.16;102182.78;6362075;27;20048;-67
2022/03/21 11:17:32;;;;;;;12.77;6.70;;;;;;;15.41;19.46;102175.56;6343626;28;20274;-67
2022/03/21 11:20:34;;;;;;;12.73;6.88;;;;;;;15.04;18.68;102164.16;6356852;27;20044;-67
2022/03/21 11:23:35;;;;;;;12.33;6.87;;;;;;;15.11;19.07;102155.03;6349864;27;20506;-67
2022/03/21 11:26:58;;;;;;;11.07;6.95;;;;;;;15.22;18.63;102154.56;6349760;28;20052;-67
2022/03/21 11:30:11;;;;;;;11.23;6.78;;;;;;;14.99;18.53;102156.50;6348436;28;20591;-67
2022/03/21 11:33:27;;;;;;;11.15;7.05;;;;;;;14.89;18.80;102139.44;6348431;28;20040;-67
2022/03/21 11:36:30;;;;;;;10.30;6.82;;;;;;;14.93;19.52;102135.75;6348444;28;20065;-67
2022/03/21 11:39:33;;;;;;;17.83;6.40;;;;;;;14.90;19.54;102128.81;6348831;28;20122;-68
2022/03/21 11:42:34;;;;;;;13.82;7.22;;;;;;;15.15;18.60;102135.56;6354799;27;20415;-68
2022/03/21 11:45:37;;;;;;;13.82;7.22;;;;;;;15.29;18.41;102137.56;6347612;28;20051;-67
2022/03/21 11:48:38;;;;;;;11.32;6.90;;;;;;;14.86;17.99;102134.31;6349368;28;20089;-68
2022/03/21 11:51:41;;;;;;;13.40;6.78;;;;;;;14.46;18.34;102136.94;6349561;28;20040;-68
2022/03/21 11:54:42;;;;;;;11.40;6.78;;;;;;;14.80;19.08;102137.22;6357981;27;20050;-67
2022/03/21 11:57:43;;;;;;;9.40;6.53;;;;;;;14.60;18.21;102127.59;6374182;27;20043;-67
2022/03/21 12:01:04;;;;;;;11.32;6.57;;;;;;;15.36;18.88;102117.06;6373499;27;20055;-67
2022/03/21 12:04:23;;;;;;;12.77;6.70;;;;;;;15.86;18.74;102113.75;6373214;27;20043;-67
2022/03/21 12:07:25;;;;;;;12.45;6.93;;;;;;;15.66;17.70;102115.56;6374532;27;20410;-67
2022/03/21 12:10:38;;;;;;;15.27;8.50;;;;;;;15.38;17.60;102105.56;6373859;27;20039;-68
2022/03/21 12:13:46;;;;;;;15.90;7.40;;;;;;;15.36;18.31;102107.41;6356781;27;20066;-68
2022/03/21 12:17:05;;;;;;;10.23;6.35;;;;;;;15.70;20.06;102101.31;6372731;27;20043;-68
2022/03/21 12:20:08;;;;;;;12.63;7.68;;;;;;;15.99;21.04;102088.50;6374019;27;20082;-68
2022/03/21 12:23:19;;;;;;;11.73;7.05;;;;;;;16.07;18.11;102081.06;6373854;27;20122;-67
2022/03/21 12:26:34;;;;;;;12.02;6.63;;;;;;;15.88;17.55;102082.94;6372537;27;20470;-69
2022/03/21 12:29:37;;;;;;;9.23;6.28;;;;;;;16.07;17.65;102069.66;6374424;27;20046;-68
2022/03/21 12:32:48;;;;;;;13.18;8.02;;;;;;;15.50;17.75;102076.03;6372101;27;20089;-68
2022/03/21 12:35:49;;;;;;;20.88;9.18;;;;;;;15.83;18.57;102084.94;6373112;27;20169;-68
2022/03/21 12:38:50;;;;;;;19.98;9.15;;;;;;;15.81;18.59;102073.63;6374220;27;20423;-68
2022/03/21 12:41:51;;;;;;;14.53;8.43;;;;;;;15.77;18.70;102075.56;6372805;27;20058;-68
2022/03/21 12:44:52;;;;;;;14.18;8.13;;;;;;;16.14;18.66;102060.50;6372959;27;20390;-68
2022/03/21 12:47:59;;;;;;;14.55;8.68;;;;;;;16.05;19.04;102058.38;6369203;27;20039;-68
2022/03/21 12:51:02;;;;;;;14.52;8.45;;;;;;;15.55;17.81;102057.38;6372176;27;20050;-68
2022/03/21 12:54:04;;;;;;;13.48;8.02;;;;;;;15.33;18.19;102052.31;6368741;27;20081;-70
2022/03/21 12:57:06;;;;;;;12.18;8.27;;;;;;;15.66;17.93;102049.78;6365870;27;20402;-68
2022/03/21 13:00:15;;;;;;;15.18;8.57;;;;;;;15.91;19.05;102051.19;6373066;27;20043;-72
2022/03/21 13:03:17;;;;;;;14.85;8.00;;;;;;;16.10;18.90;102043.16;6355635;27;20527;-72
2022/03/21 13:13:01;;;;;;;;;;;;;;;15.56;17.89;102040.63;6347967;28;20044;-72
2022/03/21 13:16:09;;;;;;;12.45;7.90;;;;;;;15.27;17.97;102039.47;6347574;28;20030;-72
2022/03/21 13:19:16;;;;;;;18.67;8.13;;;;;;;15.67;17.98;102019.91;6364030;27;20043;-72
2022/03/21 13:22:17;;;;;;;12.65;7.70;;;;;;;15.48;18.44;102029.66;6347683;28;20047;-72
2022/03/21 13:25:27;;;;;;;22.27;7.97;;;;;;;15.47;18.35;102023.53;6345904;28;20132;-72
2022/03/21 13:28:33;;;;;;;11.82;7.50;;;;;;;15.28;18.44;102014.88;6347312;28;20276;-72
2022/03/21 13:31:35;;;;;;;14.05;8.07;;;;;;;15.09;17.76;102015.78;6347248;28;20051;-72
2022/03/21 13:34:37;;;;;;;17.55;7.80;;;;;;;15.11;17.88;102019.19;6347174;28;20434;-72
2022/03/21 13:37:39;;;;;;;15.18;7.55;;;;;;;15.35;17.25;102013.63;6347949;28;20050;-74
2022/03/21 13:40:44;;;;;;;;;;;;;;;14.85;17.87;102007.31;6348312;28;20536;-73
2022/03/21 13:44:05;;;;;;;14.02;7.78;;;;;;;15.07;18.23;102008.88;6346902;28;19919;-72
2022/03/21 13:47:11;;;;;;;19.60;10.13;;;;;;;15.10;19.41;102006.13;6350380;27;20067;-69
2022/03/21 13:50:13;;;;;;;18.50;8.60;;;;;;;15.30;17.94;102006.00;6370808;27;20046;-69
2022/03/21 13:53:28;;;;;;;15.32;8.52;;;;;;;14.67;18.34;102010.81;6372284;27;20486;-69
2022/03/21 13:56:29;;;;;;;12.90;7.88;;;;;;;15.20;19.06;102009.16;6370568;27;20043;-69
2022/03/21 13:59:30;;;;;;;15.25;7.55;;;;;;;14.82;18.00;102012.69;6371640;27;20043;-70
2022/03/21 14:02:41;;;;;;;11.80;7.32;;;;;;;14.27;18.73;102002.97;6371887;27;20066;-69
2022/03/21 14:05:42;;;;;;;13.90;8.07;;;;;;;14.62;19.39;102002.28;6372530;27;20043;-68
2022/03/21 14:08:43;;;;;;;15.70;7.67;;;;;;;14.80;18.83;102004.03;6371638;27;20054;-69
2022/03/21 14:11:44;;;;;;;15.55;7.80;;;;;;;14.79;19.75;102004.13;6354135;27;20043;-67
2022/03/21 14:14:46;;;;;;;15.02;7.50;;;;;;;15.08;18.47;101990.41;6371931;27;20392;-69
2022/03/21 14:17:47;;;;;;;12.70;7.50;;;;;;;15.07;18.41;101995.75;6371255;27;20043;-69
2022/03/21 14:20:48;;;;;;;11.38;6.65;;;;;;;14.82;18.35;101994.31;6359338;27;20115;-69
2022/03/21 14:23:50;;;;;;;12.02;6.80;;;;;;;14.59;19.45;101987.53;6367957;27;20035;-69
2022/03/21 14:26:51;;;;;;;12.13;7.00;;;;;;;14.95;19.87;101984.06;6351891;27;20392;-69
2022/03/21 14:29:52;;;;;;;12.73;7.53;;;;;;;14.59;18.78;101974.38;6370323;27;20621;-70